Time;durP1;ratioP1;P1;durP2;ratioP2;P2;SDS_P1;SDS_P2;PMS_P1;PMS_P2;Temp;Humidity;BMP_temperature;BMP_pressure;BME280_temperature;BME280_humidity;BME280_pressure;Samples;Min_cycle;Max_cycle;Signal;HPM_P1;HPM_P2
2024/02/27 00:02:41;;;;;;;12.83;8.33;;;;;;;;;;5001079;28;20178;-88
2024/02/27 00:05:45;;;;;;;12.93;8.07;;;;;;;;;;4990006;28;20185;-88
2024/02/27 00:08:49;;;;;;;13.00;8.57;;;;;;;;;;5000779;28;20701;-87
2024/02/27 00:11:54;;;;;;;11.27;7.60;;;;;;;;;;4989711;28;20185;-88
2024/02/27 00:14:58;;;;;;;12.67;8.27;;;;;;;;;;5001190;28;20174;-88
2024/02/27 00:18:02;;;;;;;14.10;8.00;;;;;;;;;;5000738;28;20217;-88
2024/02/27 00:21:07;;;;;;;11.47;8.30;;;;;;;;;;4989446;28;20182;-88
2024/02/27 00:24:11;;;;;;;11.20;7.77;;;;;;;;;;5000590;28;20648;-88
2024/02/27 00:27:15;;;;;;;11.73;8.70;;;;;;;;;;5001124;28;20221;-88
2024/02/27 00:30:19;;;;;;;15.00;9.20;;;;;;;;;;5000730;28;20181;-88
2024/02/27 00:33:23;;;;;;;13.07;9.23;;;;;;;;;;4989215;28;20205;-88
2024/02/27 00:36:27;;;;;;;13.37;8.53;;;;;;;;;;4989124;28;20185;-87
2024/02/27 00:39:31;;;;;;;14.23;9.87;;;;;;;;;;4978306;28;20519;-87
2024/02/27 00:42:35;;;;;;;12.53;8.73;;;;;;;;;;5012057;28;20181;-88
2024/02/27 00:45:39;;;;;;;14.10;9.70;;;;;;;;;;5000642;28;20618;-88
2024/02/27 00:48:44;;;;;;;14.43;8.80;;;;;;;;;;4989180;28;20221;-87
2024/02/27 00:51:48;;;;;;;12.30;8.77;;;;;;;;;;5012208;28;20181;-88
2024/02/27 00:54:52;;;;;;;12.60;9.27;;;;;;;;;;4978293;28;20213;-88
2024/02/27 00:57:56;;;;;;;13.87;9.73;;;;;;;;;;5002189;28;20562;-87
2024/02/27 01:01:01;;;;;;;15.30;9.60;;;;;;;;;;4992444;28;20185;-88
2024/02/27 01:04:05;;;;;;;15.60;10.10;;;;;;;;;;4992317;28;20182;-88
2024/02/27 01:07:08;;;;;;;12.17;8.50;;;;;;;;;;5003341;28;20217;-88
2024/02/27 01:10:12;;;;;;;14.13;8.83;;;;;;;;;;4992503;28;20181;-88
2024/02/27 01:13:17;;;;;;;14.97;9.73;;;;;;;;;;5015221;28;20545;-88
2024/02/27 01:16:23;;;;;;;12.60;9.33;;;;;;;;;;4981334;28;20182;-88
2024/02/27 01:19:27;;;;;;;13.37;8.97;;;;;;;;;;4992779;28;20189;-88
2024/02/27 01:22:33;;;;;;;12.83;9.43;;;;;;;;;;4993266;28;20186;-88
2024/02/27 01:25:37;;;;;;;12.77;8.50;;;;;;;;;;4992677;28;20182;-88
2024/02/27 01:28:42;;;;;;;14.47;9.50;;;;;;;;;;4981861;28;20228;-88
2024/02/27 01:31:46;;;;;;;16.23;10.30;;;;;;;;;;4993288;28;20637;-88
2024/02/27 01:34:50;;;;;;;13.03;9.30;;;;;;;;;;5004124;28;20205;-88
2024/02/27 01:37:56;;;;;;;16.50;10.17;;;;;;;;;;5015528;28;20221;-88
2024/02/27 01:40:59;;;;;;;16.07;10.20;;;;;;;;;;4992931;28;20182;-88
2024/02/27 01:44:04;;;;;;;14.03;9.67;;;;;;;;;;4992513;28;20182;-88
2024/02/27 01:47:09;;;;;;;14.20;10.17;;;;;;;;;;4993615;28;20221;-88
2024/02/27 01:50:17;;;;;;;15.70;9.77;;;;;;;;;;5004130;28;20185;-88
2024/02/27 01:53:22;;;;;;;16.37;10.40;;;;;;;;;;4981599;28;20205;-88
2024/02/27 01:56:27;;;;;;;15.17;10.33;;;;;;;;;;4992355;28;20177;-88
2024/02/27 01:59:32;;;;;;;13.87;9.60;;;;;;;;;;4992211;28;20178;-88
2024/02/27 02:02:37;;;;;;;15.20;10.53;;;;;;;;;;5015220;28;20185;-88
2024/02/27 02:05:41;;;;;;;14.07;10.20;;;;;;;;;;4992142;28;20181;-88
2024/02/27 02:08:45;;;;;;;17.57;11.30;;;;;;;;;;4991494;28;20221;-88
2024/02/27 02:11:51;;;;;;;17.60;10.57;;;;;;;;;;5015229;28;20181;-88
2024/02/27 02:14:55;;;;;;;17.00;11.30;;;;;;;;;;5003011;28;20214;-88
2024/02/27 02:18:00;;;;;;;18.73;11.23;;;;;;;;;;4991705;28;20217;-88
2024/02/27 02:21:04;;;;;;;16.13;10.73;;;;;;;;;;4992088;28;20185;-88
2024/02/27 02:24:09;;;;;;;18.07;11.33;;;;;;;;;;5003046;28;20527;-88
2024/02/27 02:27:18;;;;;;;16.73;10.43;;;;;;;;;;5003280;28;20221;-88
2024/02/27 02:30:22;;;;;;;18.40;11.07;;;;;;;;;;5003073;28;20182;-88
2024/02/27 02:33:27;;;;;;;20.60;11.60;;;;;;;;;;4991790;28;20213;-88
2024/02/27 02:36:31;;;;;;;18.20;11.30;;;;;;;;;;5002723;28;20186;-88
2024/02/27 02:39:35;;;;;;;16.20;10.80;;;;;;;;;;4991726;28;20194;-88
2024/02/27 02:42:41;;;;;;;17.50;10.80;;;;;;;;;;4991870;28;20185;-88
2024/02/27 02:45:45;;;;;;;16.90;10.93;;;;;;;;;;5003605;28;20178;-88
2024/02/27 02:48:49;;;;;;;18.57;11.43;;;;;;;;;;5002849;28;20221;-88
2024/02/27 02:51:53;;;;;;;17.13;11.07;;;;;;;;;;4991847;28;20518;-88
2024/02/27 02:54:59;;;;;;;16.70;10.90;;;;;;;;;;4991473;28;20209;-88
2024/02/27 02:58:03;;;;;;;22.53;12.33;;;;;;;;;;5002918;28;20217;-88
2024/02/27 03:01:07;;;;;;;18.50;11.33;;;;;;;;;;4991860;28;20186;-88
2024/02/27 03:04:13;;;;;;;18.03;11.87;;;;;;;;;;5002576;28;20523;-88
2024/02/27 03:07:17;;;;;;;19.67;12.13;;;;;;;;;;5002086;28;20225;-88
2024/02/27 03:10:21;;;;;;;20.40;12.03;;;;;;;;;;4980387;28;20185;-88
2024/02/27 03:13:25;;;;;;;18.27;11.73;;;;;;;;;;5002411;28;20182;-88
2024/02/27 03:16:29;;;;;;;18.77;12.17;;;;;;;;;;5002433;28;20177;-88
2024/02/27 03:19:33;;;;;;;20.73;12.20;;;;;;;;;;5002719;28;20542;-88
2024/02/27 03:22:37;;;;;;;20.60;12.33;;;;;;;;;;4990938;28;20181;-88
2024/02/27 03:25:43;;;;;;;19.23;12.67;;;;;;;;;;5002176;28;20177;-88
2024/02/27 03:28:47;;;;;;;20.83;12.00;;;;;;;;;;4990874;28;20233;-88
2024/02/27 03:31:52;;;;;;;19.87;11.37;;;;;;;;;;5013501;28;20353;-88
2024/02/27 03:34:56;;;;;;;20.50;12.30;;;;;;;;;;4990611;28;20669;-88
2024/02/27 03:38:01;;;;;;;23.10;13.03;;;;;;;;;;4990597;28;20218;-88
2024/02/27 03:41:11;;;;;;;19.10;12.83;;;;;;;;;;5013663;28;20181;-88
2024/02/27 03:44:15;;;;;;;19.20;11.90;;;;;;;;;;5001477;28;20182;-88
2024/02/27 03:47:19;;;;;;;19.87;12.87;;;;;;;;;;4979077;28;20562;-88
2024/02/27 03:50:24;;;;;;;19.80;12.13;;;;;;;;;;4990430;28;20630;-88
2024/02/27 03:53:29;;;;;;;22.60;12.60;;;;;;;;;;4990831;28;20181;-88
2024/02/27 03:56:33;;;;;;;21.33;13.07;;;;;;;;;;4979575;28;20618;-87
2024/02/27 03:59:37;;;;;;;23.67;13.73;;;;;;;;;;5001483;28;20182;-88
2024/02/27 04:02:42;;;;;;;20.00;12.53;;;;;;;;;;5012940;28;20178;-88
2024/02/27 04:05:47;;;;;;;19.67;12.63;;;;;;;;;;5013049;28;20181;-88
2024/02/27 04:08:51;;;;;;;19.83;13.23;;;;;;;;;;4989444;28;20217;-88
2024/02/27 04:11:55;;;;;;;22.47;14.10;;;;;;;;;;5001055;28;20186;-88
2024/02/27 04:14:59;;;;;;;20.63;13.03;;;;;;;;;;4990344;28;20209;-88
2024/02/27 04:18:04;;;;;;;22.17;13.77;;;;;;;;;;5000568;28;20213;-88
2024/02/27 04:21:08;;;;;;;25.00;14.10;;;;;;;;;;4978481;28;20182;-88
2024/02/27 04:24:13;;;;;;;22.63;14.73;;;;;;;;;;4989730;28;20181;-88
2024/02/27 04:27:18;;;;;;;25.43;14.93;;;;;;;;;;5012179;28;20214;-88
2024/02/27 04:30:22;;;;;;;26.57;15.57;;;;;;;;;;4989154;28;20531;-88
2024/02/27 04:33:26;;;;;;;27.90;16.00;;;;;;;;;;4999761;28;20577;-88
2024/02/27 04:36:30;;;;;;;23.50;14.43;;;;;;;;;;5000334;28;20178;-88
2024/02/27 04:39:34;;;;;;;24.77;15.63;;;;;;;;;;5000504;28;20190;-88
2024/02/27 04:42:38;;;;;;;25.80;15.63;;;;;;;;;;4989127;28;20186;-88
2024/02/27 04:45:42;;;;;;;26.13;14.97;;;;;;;;;;4978332;28;20173;-88
2024/02/27 04:48:46;;;;;;;28.10;14.87;;;;;;;;;;5000374;28;20225;-88
2024/02/27 04:51:51;;;;;;;27.37;15.53;;;;;;;;;;5000690;28;20181;-88
2024/02/27 04:54:55;;;;;;;28.13;16.13;;;;;;;;;;5000801;28;20213;-88
2024/02/27 04:57:59;;;;;;;26.67;16.57;;;;;;;;;;5012026;28;20221;-88
2024/02/27 05:01:03;;;;;;;28.33;17.47;;;;;;;;;;4978165;28;20522;-88
2024/02/27 05:04:07;;;;;;;32.70;17.57;;;;;;;;;;4989137;28;20178;-88
2024/02/27 05:07:11;;;;;;;27.70;17.03;;;;;;;;;;5000116;28;20221;-88
2024/02/27 05:10:15;;;;;;;30.50;16.53;;;;;;;;;;4999783;28;20186;-88
2024/02/27 05:13:19;;;;;;;31.13;17.27;;;;;;;;;;4989216;28;20182;-88
2024/02/27 05:16:24;;;;;;;31.10;16.93;;;;;;;;;;4988862;28;20178;-88
2024/02/27 05:19:28;;;;;;;29.23;16.97;;;;;;;;;;5011667;28;20207;-88
2024/02/27 05:22:32;;;;;;;27.27;16.83;;;;;;;;;;4988521;28;20630;-87
2024/02/27 05:25:36;;;;;;;30.73;16.67;;;;;;;;;;4988515;28;20174;-88
2024/02/27 05:28:40;;;;;;;30.30;17.13;;;;;;;;;;4999640;28;20233;-88
2024/02/27 05:31:44;;;;;;;34.20;18.70;;;;;;;;;;5011716;28;20645;-88
2024/02/27 05:34:49;;;;;;;35.47;18.20;;;;;;;;;;4988274;28;20213;-88
2024/02/27 05:37:52;;;;;;;34.70;18.30;;;;;;;;;;4999851;28;20221;-88
2024/02/27 05:40:57;;;;;;;28.70;17.90;;;;;;;;;;4999688;28;20186;-88
2024/02/27 05:44:01;;;;;;;28.33;17.37;;;;;;;;;;5000971;28;20186;-88
2024/02/27 05:47:05;;;;;;;31.03;17.67;;;;;;;;;;4991628;28;20221;-87
2024/02/27 05:50:10;;;;;;;29.77;17.83;;;;;;;;;;4991712;28;20618;-88
2024/02/27 05:53:13;;;;;;;31.73;17.87;;;;;;;;;;4991602;28;20181;-88
2024/02/27 05:56:21;;;;;;;35.27;18.70;;;;;;;;;;4980255;28;20213;-88
2024/02/27 05:59:25;;;;;;;32.50;18.87;;;;;;;;;;4991637;28;20193;-88
2024/02/27 06:02:29;;;;;;;30.67;17.73;;;;;;;;;;5002386;28;20182;-88
2024/02/27 06:05:33;;;;;;;31.97;17.10;;;;;;;;;;5002638;28;20174;-88
2024/02/27 06:08:38;;;;;;;32.83;18.27;;;;;;;;;;4990842;28;20225;-88
2024/02/27 06:11:42;;;;;;;36.77;18.30;;;;;;;;;;5002440;28;20182;-88
2024/02/27 06:14:49;;;;;;;31.57;18.00;;;;;;;;;;4991188;28;20221;-88
2024/02/27 06:17:53;;;;;;;31.93;16.43;;;;;;;;;;4991160;28;20693;-89
2024/02/27 06:24:20;;;;;;;35.43;17.83;;;;;;;;;;5002357;28;20520;-88
2024/02/27 06:27:24;;;;;;;30.10;17.77;;;;;;;;;;5002204;28;20221;-88
2024/02/27 06:30:28;;;;;;;29.77;17.60;;;;;;;;;;5003381;28;20186;-88
2024/02/27 06:33:32;;;;;;;32.40;18.03;;;;;;;;;;4991299;28;20189;-87
2024/02/27 06:36:36;;;;;;;35.93;18.47;;;;;;;;;;5001897;28;20609;-87
2024/02/27 06:39:41;;;;;;;32.30;18.33;;;;;;;;;;4990650;28;20174;-88
2024/02/27 06:42:45;;;;;;;32.30;18.23;;;;;;;;;;5001864;28;20189;-87
2024/02/27 06:45:49;;;;;;;32.63;18.70;;;;;;;;;;4990730;28;20634;-87
2024/02/27 06:48:54;;;;;;;32.43;17.33;;;;;;;;;;4979601;28;20185;-88
2024/02/27 06:51:58;;;;;;;33.47;18.13;;;;;;;;;;5001891;28;20182;-88
2024/02/27 06:55:03;;;;;;;31.20;17.67;;;;;;;;;;4989739;28;20213;-88
2024/02/27 06:58:07;;;;;;;30.10;18.20;;;;;;;;;;5001762;28;20221;-88
2024/02/27 07:01:13;;;;;;;34.83;17.80;;;;;;;;;;4979684;28;20174;-87
2024/02/27 07:04:18;;;;;;;31.27;17.00;;;;;;;;;;4990746;28;20182;-87
2024/02/27 07:07:22;;;;;;;32.93;17.73;;;;;;;;;;5003001;28;20213;-87
2024/02/27 07:10:26;;;;;;;30.37;17.87;;;;;;;;;;5014443;28;20181;-87
2024/02/27 07:13:31;;;;;;;31.63;18.40;;;;;;;;;;5001781;28;20185;-87
2024/02/27 07:16:34;;;;;;;31.27;17.80;;;;;;;;;;4990321;28;20210;-87
2024/02/27 07:19:43;;;;;;;31.30;16.63;;;;;;;;;;5001795;28;20496;-87
2024/02/27 07:22:48;;;;;;;35.00;19.20;;;;;;;;;;4979091;28;20182;-87
2024/02/27 07:25:52;;;;;;;33.67;17.77;;;;;;;;;;4989938;28;20177;-88
2024/02/27 07:28:56;;;;;;;31.43;17.93;;;;;;;;;;4990054;28;20201;-88
2024/02/27 07:32:01;;;;;;;32.80;18.53;;;;;;;;;;5013333;28;20177;-86
2024/02/27 07:35:07;;;;;;;31.73;18.50;;;;;;;;;;5000930;28;20209;-87
2024/02/27 07:38:11;;;;;;;28.97;17.77;;;;;;;;;;4989790;28;20221;-87
2024/02/27 07:41:15;;;;;;;31.57;17.93;;;;;;;;;;4989914;28;20181;-87
2024/02/27 07:44:20;;;;;;;31.53;18.03;;;;;;;;;;5000604;28;20177;-86
2024/02/27 07:47:24;;;;;;;30.90;17.43;;;;;;;;;;5012707;28;20213;-86
2024/02/27 07:50:28;;;;;;;35.17;17.77;;;;;;;;;;4978413;28;20181;-86
2024/02/27 07:53:33;;;;;;;28.20;17.37;;;;;;;;;;5012900;28;20178;-86
2024/02/27 07:56:37;;;;;;;33.10;17.67;;;;;;;;;;5012527;28;20209;-86
2024/02/27 07:59:41;;;;;;;27.77;16.20;;;;;;;;;;5000352;28;20173;-86
2024/02/27 08:02:46;;;;;;;28.40;17.40;;;;;;;;;;4988727;28;20185;-86
2024/02/27 08:05:50;;;;;;;27.13;16.60;;;;;;;;;;4988806;28;20178;-86
2024/02/27 08:08:55;;;;;;;29.73;17.07;;;;;;;;;;4976932;28;20182;-86
2024/02/27 08:11:59;;;;;;;24.60;15.70;;;;;;;;;;5000119;28;20182;-86
2024/02/27 08:15:06;;;;;;;26.63;16.93;;;;;;;;;;4989608;28;20185;-87
2024/02/27 08:18:11;;;;;;;30.17;17.93;;;;;;;;;;4988692;28;20209;-88
2024/02/27 08:21:15;;;;;;;30.50;17.47;;;;;;;;;;4989654;28;20178;-86
2024/02/27 08:24:19;;;;;;;24.03;16.33;;;;;;;;;;4989366;28;20551;-86
2024/02/27 08:27:23;;;;;;;23.70;16.10;;;;;;;;;;4999992;28;20209;-86
2024/02/27 08:30:28;;;;;;;26.50;15.43;;;;;;;;;;4988736;28;20181;-86
2024/02/27 08:33:32;;;;;;;27.57;16.50;;;;;;;;;;5011455;28;20177;-87
2024/02/27 08:36:36;;;;;;;23.43;15.47;;;;;;;;;;4988361;28;20213;-87
2024/02/27 08:39:40;;;;;;;25.60;15.50;;;;;;;;;;4988711;28;20178;-88
2024/02/27 08:42:44;;;;;;;24.60;14.90;;;;;;;;;;4988607;28;20178;-87
2024/02/27 08:45:48;;;;;;;24.90;15.60;;;;;;;;;;4987889;28;20174;-88
2024/02/27 08:48:53;;;;;;;25.37;16.13;;;;;;;;;;4988160;28;20527;-87
2024/02/27 08:51:57;;;;;;;25.03;15.37;;;;;;;;;;4999465;28;20519;-87
2024/02/27 08:55:01;;;;;;;22.30;14.00;;;;;;;;;;4988197;28;20185;-88
2024/02/27 08:58:06;;;;;;;27.37;15.40;;;;;;;;;;5010804;28;20222;-88
2024/02/27 09:01:13;;;;;;;27.93;14.80;;;;;;;;;;4999064;28;20177;-88
2024/02/27 09:04:17;;;;;;;23.20;15.07;;;;;;;;;;4980578;28;20174;-88
2024/02/27 09:07:21;;;;;;;21.73;13.77;;;;;;;;;;4995141;28;20209;-89
2024/02/27 09:10:26;;;;;;;22.13;12.70;;;;;;;;;;4987979;28;20182;-88
2024/02/27 09:13:30;;;;;;;21.93;13.83;;;;;;;;;;4988080;28;20181;-88
2024/02/27 09:16:34;;;;;;;22.03;13.37;;;;;;;;;;4999064;28;20206;-88
2024/02/27 09:19:38;;;;;;;30.83;14.47;;;;;;;;;;5001945;28;20181;-88
2024/02/27 09:22:42;;;;;;;19.27;12.90;;;;;;;;;;5014402;28;20181;-88
2024/02/27 09:25:46;;;;;;;20.20;13.03;;;;;;;;;;5002185;28;20182;-88
2024/02/27 09:28:51;;;;;;;21.13;13.57;;;;;;;;;;5006861;28;20229;-86
2024/02/27 09:31:55;;;;;;;21.27;13.50;;;;;;;;;;4995642;28;20182;-86
2024/02/27 09:35:00;;;;;;;18.87;12.43;;;;;;;;;;4995736;28;20182;-86
2024/02/27 09:38:05;;;;;;;18.33;12.30;;;;;;;;;;4995128;28;20213;-86
2024/02/27 09:41:16;;;;;;;18.83;12.47;;;;;;;;;;4995643;28;20185;-85
2024/02/27 09:44:20;;;;;;;18.53;12.40;;;;;;;;;;4996149;28;20190;-86
2024/02/27 09:47:25;;;;;;;19.93;14.00;;;;;;;;;;4995143;28;20558;-86
2024/02/27 09:50:33;;;;;;;18.43;11.80;;;;;;;;;;4995356;28;20185;-85
2024/02/27 09:53:40;;;;;;;18.40;12.00;;;;;;;;;;4995553;28;20182;-85
2024/02/27 09:56:45;;;;;;;18.50;12.00;;;;;;;;;;5025711;28;20202;-86
2024/02/27 09:59:50;;;;;;;17.43;11.97;;;;;;;;;;5003073;28;20635;-85
2024/02/27 10:02:55;;;;;;;18.03;12.63;;;;;;;;;;4998406;28;20181;-86
2024/02/27 10:05:59;;;;;;;21.60;12.97;;;;;;;;;;5062800;28;20182;-86
2024/02/27 10:09:08;;;;;;;17.50;11.57;;;;;;;;;;5002625;28;20177;-86
2024/02/27 10:12:13;;;;;;;17.70;11.73;;;;;;;;;;5004577;28;20178;-86
2024/02/27 10:15:18;;;;;;;18.53;12.43;;;;;;;;;;5003652;28;20182;-86
2024/02/27 10:18:22;;;;;;;17.63;11.40;;;;;;;;;;5015200;28;20213;-86
2024/02/27 10:21:27;;;;;;;19.70;12.17;;;;;;;;;;4999425;28;20178;-86
2024/02/27 10:24:31;;;;;;;18.30;12.20;;;;;;;;;;5024816;28;20177;-86
2024/02/27 10:27:37;;;;;;;16.00;12.37;;;;;;;;;;5009918;28;20218;-86
2024/02/27 10:30:43;;;;;;;20.53;11.70;;;;;;;;;;5006706;28;20181;-86
2024/02/27 10:33:47;;;;;;;16.03;11.40;;;;;;;;;;4997309;28;20177;-86
2024/02/27 10:37:02;;;;;;;18.67;12.30;;;;;;;;;;5017655;28;20228;-86
2024/02/27 10:40:07;;;;;;;17.77;11.23;;;;;;;;;;4985907;28;20523;-86
2024/02/27 10:43:12;;;;;;;18.93;11.97;;;;;;;;;;5005307;28;20550;-85
2024/02/27 10:46:16;;;;;;;21.87;12.27;;;;;;;;;;4991359;28;20533;-85
2024/02/27 10:49:20;;;;;;;16.03;11.47;;;;;;;;;;4981701;28;20523;-85
2024/02/27 10:52:28;;;;;;;19.87;12.40;;;;;;;;;;5004411;28;20190;-85
2024/02/27 10:55:32;;;;;;;18.67;12.47;;;;;;;;;;5003266;28;20534;-85
2024/02/27 10:58:36;;;;;;;18.97;12.57;;;;;;;;;;5003825;28;20217;-85
2024/02/27 11:01:43;;;;;;;19.33;11.63;;;;;;;;;;5003523;28;20524;-85
2024/02/27 11:04:50;;;;;;;21.90;14.53;;;;;;;;;;4992486;28;20658;-85
2024/02/27 11:07:57;;;;;;;20.23;13.80;;;;;;;;;;4992560;28;20280;-85
2024/02/27 11:11:01;;;;;;;21.17;14.63;;;;;;;;;;5003484;28;20642;-85
2024/02/27 11:14:07;;;;;;;24.00;14.40;;;;;;;;;;5016986;28;20650;-86
2024/02/27 11:17:15;;;;;;;21.80;13.83;;;;;;;;;;4992329;28;20226;-86
2024/02/27 11:20:19;;;;;;;21.23;13.97;;;;;;;;;;5003174;28;20182;-86
2024/02/27 11:23:24;;;;;;;25.87;14.83;;;;;;;;;;4990109;28;20186;-87
2024/02/27 11:26:29;;;;;;;24.30;14.10;;;;;;;;;;4990137;28;20174;-87
2024/02/27 11:29:35;;;;;;;19.93;12.80;;;;;;;;;;4985853;28;20673;-86
2024/02/27 11:32:39;;;;;;;22.20;12.60;;;;;;;;;;5000715;28;20185;-86
2024/02/27 11:35:43;;;;;;;20.70;14.33;;;;;;;;;;5022656;28;20185;-86
2024/02/27 11:38:47;;;;;;;19.87;12.93;;;;;;;;;;5000229;28;20213;-86
2024/02/27 11:41:51;;;;;;;20.23;13.63;;;;;;;;;;4999536;28;20185;-86
2024/02/27 11:45:07;;;;;;;19.27;11.97;;;;;;;;;;5000640;28;20178;-86
2024/02/27 11:48:12;;;;;;;17.87;12.53;;;;;;;;;;4998674;28;20209;-86
2024/02/27 11:51:23;;;;;;;19.57;12.03;;;;;;;;;;4999334;28;20178;-86
2024/02/27 11:54:36;;;;;;;15.50;11.80;;;;;;;;;;4987651;28;20186;-86
2024/02/27 11:57:41;;;;;;;20.13;12.03;;;;;;;;;;4999169;28;20229;-86
2024/02/27 12:00:46;;;;;;;15.93;10.87;;;;;;;;;;5010020;28;20178;-86
2024/02/27 12:03:51;;;;;;;15.40;11.53;;;;;;;;;;4998663;28;20181;-85
2024/02/27 12:06:56;;;;;;;16.57;11.13;;;;;;;;;;4988061;28;20213;-85
2024/02/27 12:10:08;;;;;;;16.33;10.60;;;;;;;;;;5008658;28;20177;-85
2024/02/27 12:13:13;;;;;;;19.27;11.03;;;;;;;;;;4987121;28;20178;-85
2024/02/27 12:16:27;;;;;;;16.33;11.50;;;;;;;;;;4989177;28;20181;-85
2024/02/27 12:19:32;;;;;;;17.10;11.07;;;;;;;;;;4999775;28;20189;-85
2024/02/27 12:22:38;;;;;;;15.33;10.77;;;;;;;;;;4999772;28;20181;-85
2024/02/27 12:25:44;;;;;;;19.27;12.77;;;;;;;;;;4999780;28;20185;-85
2024/02/27 12:28:52;;;;;;;18.20;11.93;;;;;;;;;;4999565;28;20224;-85
2024/02/27 12:31:56;;;;;;;16.03;11.23;;;;;;;;;;4999432;28;20182;-85
2024/02/27 12:35:05;;;;;;;14.83;11.07;;;;;;;;;;5010031;28;20187;-85
2024/02/27 12:38:09;;;;;;;21.00;12.33;;;;;;;;;;4998546;28;20228;-85
2024/02/27 12:41:13;;;;;;;17.63;11.57;;;;;;;;;;5010600;28;20184;-85
2024/02/27 12:44:17;;;;;;;18.60;10.80;;;;;;;;;;4990526;28;20196;-85
2024/02/27 12:47:21;;;;;;;17.20;12.03;;;;;;;;;;4990484;28;20227;-85
2024/02/27 12:50:27;;;;;;;15.80;11.03;;;;;;;;;;4989982;28;20553;-85
2024/02/27 12:53:32;;;;;;;16.80;11.63;;;;;;;;;;5002056;28;20188;-85
2024/02/27 12:56:37;;;;;;;16.43;11.30;;;;;;;;;;4994428;28;20665;-86
2024/02/27 12:59:43;;;;;;;15.97;10.67;;;;;;;;;;5017202;28;20192;-86
2024/02/27 13:02:51;;;;;;;16.43;10.80;;;;;;;;;;5015771;28;20180;-86
2024/02/27 13:05:55;;;;;;;19.20;10.67;;;;;;;;;;4992741;28;20652;-85
2024/02/27 13:09:02;;;;;;;18.40;11.33;;;;;;;;;;4992561;28;20192;-85
2024/02/27 13:12:08;;;;;;;16.57;11.57;;;;;;;;;;5022176;28;20168;-86
2024/02/27 13:15:13;;;;;;;15.27;10.67;;;;;;;;;;4999985;28;20235;-85
2024/02/27 13:18:17;;;;;;;15.77;9.73;;;;;;;;;;4990722;28;20235;-85
2024/02/27 13:21:22;;;;;;;13.50;9.73;;;;;;;;;;5002519;28;20181;-85
2024/02/27 13:24:27;;;;;;;14.13;9.97;;;;;;;;;;5025128;28;20186;-85
2024/02/27 13:27:31;;;;;;;15.03;9.60;;;;;;;;;;5002797;28;20719;-85
2024/02/27 13:30:36;;;;;;;13.03;9.47;;;;;;;;;;5006654;28;20252;-85
2024/02/27 13:33:40;;;;;;;13.57;9.63;;;;;;;;;;4992355;28;20186;-85
2024/02/27 13:36:47;;;;;;;14.60;9.60;;;;;;;;;;5004943;28;20210;-84
2024/02/27 13:39:51;;;;;;;13.50;9.53;;;;;;;;;;4992668;28;20182;-85
2024/02/27 13:42:56;;;;;;;14.47;10.03;;;;;;;;;;5003317;28;20189;-85
2024/02/27 13:46:01;;;;;;;13.73;9.27;;;;;;;;;;5003472;28;20192;-85
2024/02/27 13:49:07;;;;;;;14.30;9.60;;;;;;;;;;5049699;28;20174;-85
2024/02/27 13:52:11;;;;;;;13.83;9.93;;;;;;;;;;5002266;28;20181;-85
2024/02/27 13:55:15;;;;;;;13.33;9.47;;;;;;;;;;5014012;28;20177;-85
2024/02/27 13:58:20;;;;;;;14.97;9.97;;;;;;;;;;5001585;28;20713;-84
2024/02/27 14:01:25;;;;;;;14.47;9.33;;;;;;;;;;5001296;28;20559;-84
2024/02/27 14:04:29;;;;;;;13.97;9.90;;;;;;;;;;5001560;28;20547;-84
2024/02/27 14:07:34;;;;;;;15.73;10.53;;;;;;;;;;5012616;28;20213;-85
2024/02/27 14:10:38;;;;;;;24.53;12.03;;;;;;;;;;5001760;28;20198;-85
2024/02/27 14:13:44;;;;;;;14.67;10.23;;;;;;;;;;4990144;28;20180;-85
2024/02/27 14:16:48;;;;;;;13.60;10.10;;;;;;;;;;4990521;28;20227;-85
2024/02/27 14:19:53;;;;;;;15.77;11.07;;;;;;;;;;5012361;28;20668;-87
2024/02/27 14:22:57;;;;;;;14.93;10.30;;;;;;;;;;5000318;28;20569;-85
2024/02/27 14:26:01;;;;;;;13.70;9.53;;;;;;;;;;5000841;28;20184;-85
2024/02/27 14:29:06;;;;;;;15.83;9.57;;;;;;;;;;5000798;28;20201;-84
2024/02/27 14:32:10;;;;;;;14.20;10.10;;;;;;;;;;5001049;28;20189;-84
2024/02/27 14:35:14;;;;;;;16.20;10.20;;;;;;;;;;5022994;28;20188;-84
2024/02/27 14:38:18;;;;;;;13.53;9.33;;;;;;;;;;4999365;28;20680;-85
2024/02/27 14:41:22;;;;;;;13.90;9.60;;;;;;;;;;5008056;28;20182;-84
2024/02/27 14:44:27;;;;;;;13.90;10.10;;;;;;;;;;5009831;28;20174;-84
2024/02/27 14:47:31;;;;;;;15.87;9.90;;;;;;;;;;5008566;28;20579;-85
2024/02/27 14:50:35;;;;;;;14.53;9.70;;;;;;;;;;4984264;28;20178;-84
2024/02/27 14:53:40;;;;;;;12.23;9.07;;;;;;;;;;4994027;28;20186;-82
2024/02/27 14:56:44;;;;;;;15.40;10.10;;;;;;;;;;5016420;28;20186;-83
2024/02/27 14:59:48;;;;;;;15.40;9.10;;;;;;;;;;4996117;28;20181;-83
2024/02/27 15:02:53;;;;;;;12.53;9.97;;;;;;;;;;5005151;28;20182;-83
2024/02/27 15:05:57;;;;;;;13.77;9.20;;;;;;;;;;5018343;28;20177;-83
2024/02/27 15:09:01;;;;;;;16.83;9.43;;;;;;;;;;5006348;28;20173;-83
2024/02/27 15:12:08;;;;;;;12.43;8.97;;;;;;;;;;5019645;28;20181;-83
2024/02/27 15:15:13;;;;;;;16.20;9.83;;;;;;;;;;4983015;28;20178;-83
2024/02/27 15:18:17;;;;;;;13.40;9.93;;;;;;;;;;4981700;28;20288;-83
2024/02/27 15:21:22;;;;;;;16.00;10.73;;;;;;;;;;5004678;28;20181;-83
2024/02/27 15:24:26;;;;;;;19.20;13.90;;;;;;;;;;5005951;28;20182;-84
2024/02/27 15:27:31;;;;;;;14.50;10.73;;;;;;;;;;5017942;28;20220;-85
2024/02/27 15:30:35;;;;;;;37.00;23.33;;;;;;;;;;4991628;28;20208;-85
2024/02/27 15:33:39;;;;;;;20.97;13.50;;;;;;;;;;5002573;28;20189;-86
2024/02/27 15:36:44;;;;;;;15.47;10.93;;;;;;;;;;4980032;28;20188;-85
2024/02/27 15:39:48;;;;;;;17.83;11.50;;;;;;;;;;5014491;28;20205;-85
2024/02/27 15:42:53;;;;;;;16.17;11.10;;;;;;;;;;4980180;28;20181;-85
2024/02/27 15:45:57;;;;;;;16.17;10.13;;;;;;;;;;4990839;28;20180;-88
2024/02/27 15:49:02;;;;;;;14.17;9.87;;;;;;;;;;5014120;28;20188;-86
2024/02/27 15:52:06;;;;;;;16.93;9.93;;;;;;;;;;5001982;28;20178;-85
2024/02/27 15:55:10;;;;;;;13.17;8.90;;;;;;;;;;4991737;28;20189;-85
2024/02/27 15:58:14;;;;;;;12.93;9.27;;;;;;;;;;5002575;28;20229;-86
2024/02/27 16:01:18;;;;;;;13.87;9.20;;;;;;;;;;4991366;28;20177;-86
2024/02/27 16:04:37;;;;;;;12.07;9.37;;;;;;;;;;5001803;28;20182;-86
2024/02/27 16:07:46;;;;;;;13.27;9.33;;;;;;;;;;4990664;28;20213;-86
2024/02/27 16:10:50;;;;;;;14.63;8.60;;;;;;;;;;5002120;28;20186;-86
2024/02/27 16:13:54;;;;;;;12.57;8.87;;;;;;;;;;4990459;28;20173;-86
2024/02/27 16:16:58;;;;;;;18.40;12.70;;;;;;;;;;4990712;28;20212;-86
2024/02/27 16:20:03;;;;;;;17.67;12.47;;;;;;;;;;5001326;28;20197;-87
2024/02/27 16:23:08;;;;;;;13.80;10.90;;;;;;;;;;5013144;28;20177;-86
2024/02/27 16:26:14;;;;;;;13.73;9.97;;;;;;;;;;4990152;28;20186;-86
2024/02/27 16:29:18;;;;;;;14.07;9.93;;;;;;;;;;4999859;28;20200;-86
2024/02/27 16:32:23;;;;;;;13.03;8.73;;;;;;;;;;5000985;28;20189;-86
2024/02/27 16:35:28;;;;;;;14.80;8.97;;;;;;;;;;5012538;28;20646;-86
2024/02/27 16:38:32;;;;;;;14.27;8.80;;;;;;;;;;5000493;28;20217;-86
2024/02/27 16:41:36;;;;;;;14.10;8.67;;;;;;;;;;5012805;28;20177;-86
2024/02/27 16:44:40;;;;;;;14.13;8.57;;;;;;;;;;5000928;28;20178;-87
2024/02/27 16:47:45;;;;;;;21.27;9.77;;;;;;;;;;5000641;28;20209;-87
2024/02/27 16:50:49;;;;;;;29.07;10.07;;;;;;;;;;5000462;28;20186;-87
2024/02/27 16:53:53;;;;;;;25.47;10.10;;;;;;;;;;5013154;28;20638;-88
2024/02/27 16:56:57;;;;;;;16.73;8.43;;;;;;;;;;5001024;28;20225;-88
2024/02/27 17:00:05;;;;;;;13.87;8.97;;;;;;;;;;4978972;28;20174;-88
2024/02/27 17:03:09;;;;;;;15.70;8.07;;;;;;;;;;5012365;28;20519;-88
2024/02/27 17:06:13;;;;;;;14.97;8.77;;;;;;;;;;4989216;28;20177;-87
2024/02/27 17:09:19;;;;;;;14.17;8.90;;;;;;;;;;5000604;28;20177;-87
2024/02/27 17:12:23;;;;;;;14.23;9.37;;;;;;;;;;5000793;28;20523;-88
2024/02/27 17:15:27;;;;;;;15.87;8.80;;;;;;;;;;4989981;28;20178;-88
2024/02/27 17:18:32;;;;;;;17.50;9.00;;;;;;;;;;4989677;28;20705;-88
2024/02/27 17:21:37;;;;;;;14.87;10.00;;;;;;;;;;4989996;28;20190;-88
2024/02/27 17:24:41;;;;;;;19.07;10.80;;;;;;;;;;5000742;28;20639;-87
2024/02/27 17:27:45;;;;;;;13.27;9.37;;;;;;;;;;4988618;28;20217;-87
2024/02/27 17:30:49;;;;;;;15.10;9.33;;;;;;;;;;4977992;28;20178;-88
2024/02/27 17:33:53;;;;;;;12.63;9.27;;;;;;;;;;4989421;28;20173;-87
2024/02/27 17:36:58;;;;;;;13.67;9.23;;;;;;;;;;4988722;28;20523;-88
2024/02/27 17:40:03;;;;;;;16.33;10.07;;;;;;;;;;4978870;28;20177;-87
2024/02/27 17:43:07;;;;;;;14.43;9.03;;;;;;;;;;5003155;28;20177;-87
2024/02/27 17:46:11;;;;;;;14.13;9.40;;;;;;;;;;4992762;28;20186;-87
2024/02/27 17:49:16;;;;;;;12.23;8.97;;;;;;;;;;4980960;28;20634;-88
2024/02/27 17:52:20;;;;;;;16.00;9.33;;;;;;;;;;4992084;28;20178;-88
2024/02/27 17:55:25;;;;;;;14.47;8.93;;;;;;;;;;4990873;28;20190;-87
2024/02/27 17:58:29;;;;;;;14.13;9.27;;;;;;;;;;4981098;28;20264;-88
2024/02/27 18:01:33;;;;;;;15.20;9.57;;;;;;;;;;4991954;28;20181;-88
2024/02/27 18:04:38;;;;;;;12.67;8.43;;;;;;;;;;5003431;28;20178;-87